createdAt,value
2022-10-26T00:02:37.755Z,13.1
2022-10-26T00:08:48.245Z,13.3
2022-10-26T00:14:58.894Z,13.3
2022-10-26T00:21:09.623Z,13.3
2022-10-26T00:27:20.233Z,13.5
2022-10-26T00:33:30.900Z,13.2
2022-10-26T00:38:43.856Z,13.2
2022-10-26T00:44:54.500Z,13.3
2022-10-26T00:51:05.262Z,13.4
2022-10-26T00:56:09.897Z,13.6
2022-10-26T01:02:12.381Z,13.3
2022-10-26T01:08:23.004Z,13.2
2022-10-26T01:14:33.733Z,13.2
2022-10-26T01:20:44.345Z,13.2
2022-10-26T01:26:55.029Z,13.3
2022-10-26T01:33:05.722Z,13.4
2022-10-26T01:39:16.368Z,13.4
2022-10-26T01:45:27.031Z,13.4
2022-10-26T01:51:37.726Z,13.3
2022-10-26T01:57:48.591Z,13.5
2022-10-26T02:03:50.910Z,13.5
2022-10-26T02:10:01.515Z,13.3
2022-10-26T02:16:12.151Z,13.5
2022-10-26T02:22:22.905Z,13.5
2022-10-26T02:28:33.506Z,13.7
2022-10-26T02:34:44.168Z,13.6
2022-10-26T02:40:54.811Z,13.6
2022-10-26T02:47:05.521Z,13.6
2022-10-26T02:53:16.150Z,13.6
2022-10-26T02:59:26.833Z,13.6
2022-10-26T03:05:29.313Z,13.7
2022-10-26T03:10:42.253Z,13.8
2022-10-26T03:16:52.875Z,13.8
2022-10-26T03:23:03.567Z,13.7
2022-10-26T03:29:14.208Z,13.8
2022-10-26T03:35:25.005Z,13.8
2022-10-26T03:41:35.555Z,14
2022-10-26T03:47:46.212Z,14.1
2022-10-26T03:53:56.891Z,13.8
2022-10-26T04:01:13.574Z,13.8
2022-10-26T04:07:24.131Z,13.8
2022-10-26T04:13:34.821Z,13.9
2022-10-26T04:19:45.521Z,14
2022-10-26T04:25:56.138Z,13.9
2022-10-26T04:32:06.834Z,14
2022-10-26T04:38:17.489Z,14.1
2022-10-26T04:44:28.180Z,13.9
2022-10-26T04:50:38.811Z,13.9
2022-10-26T04:56:49.511Z,14.1
2022-10-26T05:01:54.286Z,13.9
2022-10-26T05:07:56.700Z,13.9
2022-10-26T05:14:07.392Z,14.1
2022-10-26T05:20:18.020Z,14.1
2022-10-26T05:26:28.714Z,14.2
2022-10-26T05:32:39.389Z,14.2
2022-10-26T05:37:52.291Z,14.1
2022-10-26T05:44:02.925Z,14
2022-10-26T05:50:13.633Z,14.1
2022-10-26T05:56:24.265Z,14
2022-10-26T06:02:35.050Z,14
2022-10-26T06:08:37.430Z,14
2022-10-26T06:14:48.068Z,13.9
2022-10-26T06:20:58.744Z,14
2022-10-26T06:27:09.415Z,14
2022-10-26T06:33:35.527Z,13.8
2022-10-26T06:39:30.714Z,13.8
2022-10-26T06:45:41.421Z,14
2022-10-26T06:51:52.082Z,14
2022-10-26T06:58:02.742Z,14.1
2022-10-26T07:05:19.369Z,14.2
2022-10-26T07:11:30.010Z,14.1
2022-10-26T07:17:42.675Z,13.9
2022-10-26T07:23:51.359Z,14
2022-10-26T07:30:02.005Z,14
2022-10-26T07:36:12.651Z,13.9
2022-10-26T07:42:23.367Z,13.9
2022-10-26T07:48:34.062Z,14.2
2022-10-26T07:54:44.677Z,14.2
2022-10-26T08:00:55.443Z,14.3
2022-10-26T08:08:28.308Z,14.3
2022-10-26T08:14:38.994Z,14.7
2022-10-26T08:20:49.680Z,14.5
2022-10-26T08:27:00.340Z,15.2
2022-10-26T08:33:19.193Z,15.8
2022-10-26T08:39:38.071Z,16.4
2022-10-26T08:44:42.897Z,16.7
2022-10-26T08:49:47.500Z,17
2022-10-26T08:54:52.427Z,16.7
2022-10-26T08:59:56.960Z,16.5
2022-10-26T09:06:15.817Z,16.4
2022-10-26T09:13:40.620Z,16.8
2022-10-26T09:21:05.401Z,16.7
2022-10-26T09:28:30.255Z,17
2022-10-26T09:33:43.235Z,17.1
2022-10-26T09:38:56.400Z,17.3
2022-10-26T09:44:58.524Z,17.2
2022-10-26T09:51:09.188Z,17.3
2022-10-26T09:57:19.900Z,17.7
2022-10-26T10:03:30.487Z,17.9
2022-10-26T10:09:41.209Z,18.3
2022-10-26T10:15:51.833Z,18.6
2022-10-26T10:22:02.529Z,22.4
2022-10-26T10:28:13.220Z,23
2022-10-26T10:34:23.857Z,24.2
2022-10-26T10:39:36.761Z,24.1
2022-10-26T10:45:39.281Z,24
2022-10-26T10:51:49.895Z,24.6
2022-10-26T10:58:00.589Z,24.2
2022-10-26T11:04:11.279Z,24.4
2022-10-26T11:10:21.946Z,24.4
2022-10-26T11:16:32.585Z,24.7
2022-10-26T11:22:43.281Z,24.4
2022-10-26T11:28:53.973Z,24.3
2022-10-26T11:35:04.559Z,24.6
2022-10-26T11:41:15.258Z,24.6
2022-10-26T11:47:17.707Z,24.6
2022-10-26T11:53:28.403Z,24.4
2022-10-26T12:00:53.230Z,24.5
2022-10-26T12:07:03.839Z,24.5
2022-10-26T12:13:14.534Z,24.4
2022-10-26T12:19:25.265Z,24.3
2022-10-26T12:25:35.869Z,24.4
2022-10-26T12:31:46.557Z,24
2022-10-26T12:37:57.331Z,24.4
2022-10-26T12:44:09.984Z,24.4
2022-10-26T12:50:10.317Z,24
2022-10-26T12:56:21.016Z,23.8
2022-10-26T13:02:31.672Z,24
2022-10-26T13:07:44.594Z,23.9
2022-10-26T13:13:55.299Z,24
2022-10-26T13:20:05.925Z,24.3
2022-10-26T13:26:16.604Z,23.9
2022-10-26T13:32:27.295Z,24
2022-10-26T13:38:37.913Z,24
2022-10-26T13:43:42.658Z,23.9
2022-10-26T13:49:45.167Z,24
2022-10-26T13:55:55.805Z,23.7
2022-10-26T14:02:06.455Z,23.7
2022-10-26T14:08:17.183Z,23.5
2022-10-26T14:14:27.799Z,23.5
2022-10-26T14:20:38.466Z,23.4
2022-10-26T14:26:49.241Z,23.4
2022-10-26T14:32:59.780Z,23.1
2022-10-26T14:39:10.457Z,22.7
2022-10-26T14:45:29.416Z,22.4
2022-10-26T14:51:23.605Z,22.4
2022-10-26T14:57:34.259Z,22.6
2022-10-26T15:03:44.986Z,22.4
2022-10-26T15:09:55.596Z,22.1
2022-10-26T15:16:06.296Z,22
2022-10-26T15:22:16.952Z,21.8
2022-10-26T15:28:27.643Z,21.5
2022-10-26T15:34:38.273Z,21.6
2022-10-26T15:39:51.298Z,21.4
2022-10-26T15:46:01.868Z,21.1
2022-10-26T15:58:15.041Z,20.8
2022-10-26T16:04:25.666Z,20.6
2022-10-26T16:10:36.349Z,20.4
2022-10-26T16:16:47.025Z,20.2
2022-10-26T16:22:57.690Z,19.9
2022-10-26T16:29:08.360Z,19.6
2022-10-26T16:35:19.023Z,19.5
2022-10-26T16:41:29.690Z,19.2
2022-10-26T16:48:46.307Z,19
2022-10-26T16:54:56.987Z,18.8
2022-10-26T17:01:07.722Z,18.7
2022-10-26T17:07:18.276Z,18.6
2022-10-26T17:13:28.978Z,18.5
2022-10-26T17:19:39.622Z,18.5
2022-10-26T17:25:50.285Z,18.4
2022-10-26T17:32:00.960Z,18.1
2022-10-26T17:38:11.615Z,18.1
2022-10-26T17:44:22.288Z,17.8
2022-10-26T17:50:24.870Z,17.8
2022-10-26T17:55:29.499Z,17.6
2022-10-26T18:01:40.297Z,17.5
2022-10-26T18:08:07.222Z,17.5
2022-10-26T18:14:17.853Z,17.4
2022-10-26T18:20:28.515Z,17
2022-10-26T18:27:53.354Z,17
2022-10-26T18:34:03.979Z,16.3
2022-10-26T18:40:14.680Z,16.7
2022-10-26T18:46:25.349Z,16.6
2022-10-26T18:52:27.787Z,16.6
2022-10-26T18:58:38.472Z,16.7
2022-10-26T19:04:49.175Z,16.7
2022-10-26T19:12:13.949Z,16.4
2022-10-26T19:18:24.604Z,16.4
2022-10-26T19:24:35.297Z,16.4
2022-10-26T19:30:45.932Z,16.4
2022-10-26T19:36:56.631Z,16.5
2022-10-26T19:43:07.316Z,16.3
2022-10-26T19:49:17.939Z,16.1
2022-10-26T19:55:20.619Z,15.9
2022-10-26T20:01:31.233Z,16
2022-10-26T20:07:41.734Z,16
2022-10-26T20:13:52.411Z,15.8
2022-10-26T20:20:03.135Z,15.9
2022-10-26T20:26:18.015Z,15.7
2022-10-26T20:32:24.435Z,15.8
2022-10-26T20:37:37.364Z,15.8
2022-10-26T20:43:48.006Z,15.8
2022-10-26T20:51:04.654Z,15.8
2022-10-26T20:57:15.312Z,15.6
2022-10-26T21:03:25.953Z,15.6
2022-10-26T21:09:36.900Z,15.7
2022-10-26T21:15:47.297Z,15.7
2022-10-26T21:21:57.961Z,15.7
2022-10-26T21:28:08.586Z,15.6
2022-10-26T21:34:19.323Z,15.6
2022-10-26T21:40:29.949Z,15.5
2022-10-26T21:46:40.614Z,15.3
2022-10-26T21:53:57.249Z,15.3
2022-10-26T22:00:16.062Z,15.3
2022-10-26T22:06:26.755Z,15.3
2022-10-26T22:12:37.412Z,15.3
2022-10-26T22:18:48.108Z,15.4
2022-10-26T22:24:58.740Z,15.2
2022-10-26T22:31:09.447Z,15.1
2022-10-26T22:37:20.070Z,15.2
2022-10-26T22:43:30.722Z,15.2
2022-10-26T22:49:41.423Z,15.1
2022-10-26T22:55:43.872Z,15.2
2022-10-26T23:01:54.686Z,15.2
2022-10-26T23:08:21.623Z,15
2022-10-26T23:14:32.265Z,15
2022-10-26T23:20:42.920Z,14.9
2022-10-26T23:26:53.647Z,14.9
2022-10-26T23:33:04.264Z,14.9
2022-10-26T23:39:14.941Z,14.9
2022-10-26T23:45:25.632Z,14.8
2022-10-26T23:52:42.208Z,14.6
2022-10-26T23:58:52.867Z,14.8
